Time;durP1;ratioP1;P1;durP2;ratioP2;P2;SDS_P1;SDS_P2;PMS_P1;PMS_P2;Temp;Humidity;BMP_temperature;BMP_pressure;BME280_temperature;BME280_humidity;BME280_pressure;Samples;Min_cycle;Max_cycle;Signal;HPM_P1;HPM_P2
2024/04/11 00:01:40;;;;;;;11.40;5.50;;;;;;;10.96;74.91;102164.50;106097;1258;99437;-81
2024/04/11 00:04:27;;;;;;;6.20;4.60;;;;;;;10.97;74.94;102162.93;106266;1255;99293;-79
2024/04/11 00:07:13;;;;;;;7.60;5.40;;;;;;;10.99;74.75;102157.39;106190;1258;99495;-81
2024/04/11 00:09:58;;;;;;;7.70;4.80;;;;;;;11.01;74.62;102161.15;106172;1258;103424;-82
2024/04/11 00:12:47;;;;;;;10.40;4.80;;;;;;;11.00;74.74;102165.09;106406;1260;100493;-80
2024/04/11 00:15:32;;;;;;;10.60;5.20;;;;;;;10.98;74.63;102165.30;106252;1257;99421;-79
2024/04/11 00:18:18;;;;;;;7.40;4.50;;;;;;;10.96;74.69;102163.93;106178;1255;99306;-81
2024/04/11 00:21:04;;;;;;;7.40;4.50;;;;;;;10.93;74.54;102160.79;106262;1258;99773;-80
2024/04/11 00:23:50;;;;;;;7.10;4.50;;;;;;;10.90;74.36;102161.97;106379;1255;103576;-81
2024/04/11 00:26:36;;;;;;;7.80;4.70;;;;;;;10.87;74.36;102165.15;106234;1258;99328;-81
2024/04/11 00:29:21;;;;;;;8.20;4.90;;;;;;;10.83;74.33;102167.52;106231;1260;100483;-80
2024/04/11 00:32:07;;;;;;;8.50;4.90;;;;;;;10.79;74.49;102172.52;106153;1256;99335;-80
2024/04/11 00:34:53;;;;;;;7.60;4.20;;;;;;;10.76;74.46;102174.48;106282;1256;99825;-81
2024/04/11 00:37:38;;;;;;;7.90;5.10;;;;;;;10.72;74.40;102170.75;106184;1260;103936;-82
2024/04/11 00:40:24;;;;;;;8.90;4.30;;;;;;;10.68;74.37;102174.40;106057;1256;99335;-80
2024/04/11 00:43:09;;;;;;;8.60;5.20;;;;;;;10.64;74.37;102173.52;106108;1257;99339;-80
2024/04/11 00:45:57;;;;;;;7.90;4.60;;;;;;;10.59;74.34;102171.83;106072;1256;99425;-81
2024/04/11 00:48:45;;;;;;;7.10;4.90;;;;;;;10.55;74.59;102167.75;105998;1259;99329;-79
2024/04/11 00:51:30;;;;;;;8.40;4.90;;;;;;;10.51;74.71;102171.59;105365;1257;102677;-79
2024/04/11 00:54:17;;;;;;;8.40;4.50;;;;;;;10.47;74.65;102173.04;105476;1260;99434;-80
2024/04/11 00:57:07;;;;;;;8.20;4.10;;;;;;;10.43;74.73;102173.09;105500;1260;99415;-80
2024/04/11 00:59:53;;;;;;;7.40;4.70;;;;;;;10.37;74.76;102169.62;105532;1256;99373;-80
2024/04/11 01:02:42;;;;;;;11.60;4.90;;;;;;;10.31;75.06;102170.13;105626;1255;99837;-80
2024/04/11 01:05:27;;;;;;;7.70;5.30;;;;;;;10.27;75.48;102168.05;105633;1261;103764;-79
2024/04/11 01:08:13;;;;;;;8.50;5.50;;;;;;;10.24;75.41;102167.67;105630;1255;99330;-80
2024/04/11 01:10:58;;;;;;;7.90;5.70;;;;;;;10.19;75.56;102167.39;105672;1257;99945;-81
2024/04/11 01:13:48;;;;;;;12.10;5.30;;;;;;;10.14;75.59;102170.91;105677;1260;99240;-78
2024/04/11 01:16:35;;;;;;;10.80;5.70;;;;;;;10.09;75.66;102175.45;105839;1259;100690;-81
2024/04/11 01:19:22;;;;;;;13.80;5.70;;;;;;;10.05;75.81;102179.75;106008;1256;102826;-79
2024/04/11 01:22:10;;;;;;;12.90;6.60;;;;;;;10.00;76.07;102184.10;105787;1260;99378;-80
2024/04/11 01:24:56;;;;;;;11.10;6.40;;;;;;;9.97;76.33;102184.77;106093;1256;99592;-80
2024/04/11 01:27:41;;;;;;;12.50;6.10;;;;;;;9.95;76.28;102181.35;106144;1256;99326;-80
2024/04/11 01:30:28;;;;;;;11.50;6.90;;;;;;;9.93;76.52;102181.27;105672;1258;99753;-80
2024/04/11 01:33:14;;;;;;;10.50;6.70;;;;;;;9.89;76.90;102186.41;105811;1256;103636;-80
2024/04/11 01:36:00;;;;;;;10.80;6.40;;;;;;;9.87;76.95;102187.02;105703;1260;99759;-81
2024/04/11 01:38:45;;;;;;;14.20;6.50;;;;;;;9.84;77.06;102189.95;106106;1258;99328;-81
2024/04/11 01:41:31;;;;;;;9.90;5.90;;;;;;;9.81;77.26;102193.61;105732;1260;99375;-79
2024/04/11 01:44:16;;;;;;;10.20;5.70;;;;;;;9.78;77.27;102191.79;105758;1256;99768;-79
2024/04/11 01:47:02;;;;;;;10.70;6.50;;;;;;;9.75;77.23;102188.89;105784;1260;102708;-81
2024/04/11 01:49:48;;;;;;;9.60;6.20;;;;;;;9.70;77.33;102184.19;105724;1255;99825;-81
2024/04/11 01:52:34;;;;;;;8.80;5.90;;;;;;;9.65;77.05;102188.59;106326;1255;99361;-80
2024/04/11 01:55:19;;;;;;;18.10;6.20;;;;;;;9.58;77.42;102188.48;106343;1258;99440;-81
2024/04/11 01:58:05;;;;;;;12.00;6.60;;;;;;;9.51;77.37;102188.45;106238;1255;99770;-79
2024/04/11 02:00:53;;;;;;;10.10;5.90;;;;;;;9.45;77.68;102189.91;106168;1258;102754;-80
2024/04/11 02:03:39;;;;;;;13.30;6.30;;;;;;;9.37;77.97;102194.72;106208;1254;99411;-80
2024/04/11 02:06:25;;;;;;;9.10;6.30;;;;;;;9.33;77.98;102196.33;106168;1258;100815;-81
2024/04/11 02:09:11;;;;;;;9.70;6.40;;;;;;;9.30;77.89;102196.62;106175;1255;99334;-80
2024/04/11 02:11:58;;;;;;;10.80;6.10;;;;;;;9.26;78.02;102197.14;106152;1260;101045;-79
2024/04/11 02:14:46;;;;;;;8.60;5.50;;;;;;;9.22;78.18;102204.34;106246;1255;103443;-80
2024/04/11 02:17:31;;;;;;;10.70;5.30;;;;;;;9.18;78.19;102209.98;106204;1257;99303;-80
2024/04/11 02:20:16;;;;;;;6.90;5.00;;;;;;;9.17;78.31;102210.52;105683;1256;100938;-78
2024/04/11 02:23:04;;;;;;;10.30;5.30;;;;;;;9.15;78.07;102206.38;105645;1262;99395;-79
2024/04/11 02:25:52;;;;;;;8.40;4.70;;;;;;;9.13;78.30;102209.98;105741;1257;99312;-81
2024/04/11 02:28:38;;;;;;;7.90;5.00;;;;;;;9.07;78.22;102218.13;105711;1261;102753;-79
2024/04/11 02:31:24;;;;;;;7.30;5.10;;;;;;;9.02;78.32;102226.27;105939;1257;99744;-80
2024/04/11 02:34:10;;;;;;;8.60;4.80;;;;;;;8.99;78.69;102227.29;105711;1256;99841;-78
2024/04/11 02:36:56;;;;;;;10.70;4.60;;;;;;;8.97;79.04;102228.38;105660;1258;99406;-79
2024/04/11 02:39:41;;;;;;;6.90;4.70;;;;;;;8.92;79.47;102225.63;105539;1256;100597;-78
2024/04/11 02:42:27;;;;;;;9.60;5.10;;;;;;;8.86;79.44;102225.56;105514;1260;102882;-79
2024/04/11 02:45:14;;;;;;;8.80;5.20;;;;;;;8.83;79.69;102226.27;105723;1260;100483;-79
2024/04/11 02:48:03;;;;;;;7.50;5.50;;;;;;;8.80;79.96;102225.27;105997;1261;99707;-80
2024/04/11 02:50:49;;;;;;;10.00;5.40;;;;;;;8.75;79.81;102226.95;106101;1255;99362;-80
2024/04/11 02:53:34;;;;;;;11.80;5.30;;;;;;;8.68;79.80;102230.06;106462;1259;99831;-80
2024/04/11 02:56:20;;;;;;;9.80;5.10;;;;;;;8.63;80.01;102231.64;105728;1260;103249;-78
2024/04/11 02:59:05;;;;;;;11.10;4.90;;;;;;;8.57;80.04;102230.18;105648;1257;99400;-80
2024/04/11 03:01:51;;;;;;;8.20;4.60;;;;;;;8.52;80.33;102223.78;105717;1263;99317;-80
2024/04/11 03:04:38;;;;;;;7.80;4.70;;;;;;;8.49;80.38;102224.95;105768;1260;99309;-80
2024/04/11 03:07:23;;;;;;;7.90;4.20;;;;;;;8.46;80.42;102226.29;105832;1255;100912;-80
2024/04/11 03:10:09;;;;;;;8.60;4.70;;;;;;;8.44;80.56;102229.54;105663;1259;102702;-79
2024/04/11 03:12:54;;;;;;;7.30;4.20;;;;;;;8.43;80.60;102231.58;105687;1258;100363;-80
2024/04/11 03:15:40;;;;;;;7.30;4.30;;;;;;;8.41;80.44;102234.05;105485;1260;99329;-80
2024/04/11 03:18:26;;;;;;;8.20;4.50;;;;;;;8.40;80.70;102231.51;105611;1258;99289;-78
2024/04/11 03:21:12;;;;;;;6.70;4.50;;;;;;;8.37;80.87;102236.70;105563;1255;99778;-78
2024/04/11 03:23:58;;;;;;;6.40;4.60;;;;;;;8.36;81.08;102236.10;105644;1256;103984;-79
2024/04/11 03:26:43;;;;;;;7.50;5.10;;;;;;;8.36;80.99;102235.73;105613;1258;100011;-78
2024/04/11 03:29:29;;;;;;;9.00;4.70;;;;;;;8.36;81.15;102238.77;105586;1257;99434;-81
2024/04/11 03:32:15;;;;;;;10.40;5.40;;;;;;;8.32;81.27;102242.65;106147;1260;100572;-78
2024/04/11 03:35:00;;;;;;;10.30;5.20;;;;;;;8.28;81.22;102248.17;105769;1258;99441;-80
2024/04/11 03:37:48;;;;;;;10.10;4.70;;;;;;;8.26;81.36;102246.58;105771;1261;103542;-79
2024/04/11 03:40:34;;;;;;;7.20;5.00;;;;;;;8.24;81.26;102246.55;105757;1255;99246;-80
2024/04/11 03:43:21;;;;;;;9.10;4.10;;;;;;;8.23;81.19;102247.88;105788;1257;99392;-80
2024/04/11 03:46:19;;;;;;;9.40;4.50;;;;;;;8.22;81.22;102247.78;105746;1256;99888;-81
2024/04/11 03:49:06;;;;;;;7.60;4.30;;;;;;;8.20;81.44;102248.98;105814;1258;99949;-79
2024/04/11 03:51:52;;;;;;;10.30;4.10;;;;;;;8.19;81.28;102252.15;105581;1257;103993;-80
2024/04/11 03:54:37;;;;;;;7.00;4.10;;;;;;;8.15;81.21;102255.30;105539;1258;99414;-78
2024/04/11 03:57:25;;;;;;;7.80;4.10;;;;;;;8.11;81.19;102256.07;105717;1260;100046;-80
2024/04/11 04:00:10;;;;;;;7.80;4.80;;;;;;;8.06;80.95;102256.30;105719;1255;99311;-80
2024/04/11 04:02:59;;;;;;;8.60;4.90;;;;;;;8.02;80.87;102257.74;106315;1256;99956;-79
2024/04/11 04:05:45;;;;;;;9.50;4.50;;;;;;;7.98;80.66;102258.28;106175;1257;103472;-80
2024/04/11 04:08:30;;;;;;;8.90;3.80;;;;;;;7.94;80.53;102253.27;106250;1255;99386;-81
2024/04/11 04:11:18;;;;;;;11.30;4.30;;;;;;;7.90;80.74;102261.91;106186;1255;99223;-80
2024/04/11 04:14:08;;;;;;;7.00;4.10;;;;;;;7.88;80.71;102264.28;105745;1258;99450;-80
2024/04/11 04:16:54;;;;;;;7.40;3.40;;;;;;;7.83;80.54;102262.91;105701;1255;99271;-79
2024/04/11 04:19:40;;;;;;;6.20;3.30;;;;;;;7.80;80.65;102256.59;105748;1256;103904;-80
2024/04/11 04:22:27;;;;;;;7.20;4.10;;;;;;;7.77;80.91;102259.98;106230;1255;100910;-79
2024/04/11 04:25:14;;;;;;;6.80;3.50;;;;;;;7.75;80.90;102262.49;106158;1256;99526;-79
2024/04/11 04:28:00;;;;;;;6.90;3.90;;;;;;;7.72;81.00;102267.70;106077;1256;99418;-80
2024/04/11 04:30:45;;;;;;;7.30;3.60;;;;;;;7.69;81.10;102274.90;105661;1260;101005;-80
2024/04/11 04:33:31;;;;;;;8.40;3.80;;;;;;;7.66;81.57;102274.09;105687;1260;104454;-78
2024/04/11 04:36:27;;;;;;;9.20;4.00;;;;;;;7.64;81.68;102275.53;106433;1255;99701;-79
2024/04/11 04:39:16;;;;;;;7.40;4.00;;;;;;;7.62;81.78;102279.41;106189;1260;99298;-79
2024/04/11 04:42:02;;;;;;;10.10;4.20;;;;;;;7.61;81.61;102280.19;106394;1258;99316;-80
2024/04/11 04:44:47;;;;;;;9.90;3.80;;;;;;;7.60;81.94;102279.90;105798;1259;99890;-80
2024/04/11 04:47:34;;;;;;;10.10;4.70;;;;;;;7.61;82.14;102284.14;105730;1258;103608;-82
2024/04/11 04:50:20;;;;;;;14.60;4.80;;;;;;;7.61;82.30;102284.85;106154;1255;99359;-79
2024/04/11 04:53:05;;;;;;;7.00;4.30;;;;;;;7.61;82.23;102286.64;105627;1271;99434;-79
2024/04/11 04:55:52;;;;;;;11.70;5.40;;;;;;;7.60;82.53;102286.13;105642;1256;99439;-81
2024/04/11 04:58:41;;;;;;;24.30;6.70;;;;;;;7.60;82.80;102292.54;106129;1258;99226;-81
2024/04/11 05:01:27;;;;;;;13.00;5.40;;;;;;;7.61;83.29;102292.81;106195;1256;104464;-80
2024/04/11 05:04:13;;;;;;;9.40;4.80;;;;;;;7.62;84.14;102285.45;106250;1256;99368;-80
2024/04/11 05:06:59;;;;;;;11.40;5.30;;;;;;;7.66;84.80;102285.31;106240;1257;99323;-80
2024/04/11 05:09:46;;;;;;;9.60;4.60;;;;;;;7.71;85.29;102287.34;105708;1260;98136;-80
2024/04/11 05:12:42;;;;;;;11.40;4.80;;;;;;;7.75;85.52;102288.59;105689;1260;99395;-81
2024/04/11 05:15:28;;;;;;;8.20;4.80;;;;;;;7.79;85.88;102293.93;106254;1258;102692;-80
2024/04/11 05:18:14;;;;;;;10.20;4.50;;;;;;;7.85;86.03;102298.11;106284;1255;100874;-81
2024/04/11 05:21:01;;;;;;;11.90;4.70;;;;;;;7.89;86.24;102304.52;106467;1255;99903;-82
2024/04/11 05:23:47;;;;;;;21.60;4.70;;;;;;;7.92;86.78;102305.02;105897;1255;99390;-81
2024/04/11 05:26:32;;;;;;;11.80;5.10;;;;;;;7.98;87.45;102310.41;106079;1258;99765;-81
2024/04/11 05:29:21;;;;;;;9.90;4.90;;;;;;;8.05;87.93;102313.55;106166;1260;102680;-81
2024/04/11 05:32:08;;;;;;;11.30;4.10;;;;;;;8.12;88.48;102314.70;105989;1258;100375;-79
2024/04/11 05:35:09;;;;;;;7.80;4.20;;;;;;;8.19;88.89;102316.88;106102;1258;99478;-81
2024/04/11 05:38:00;;;;;;;9.10;4.60;;;;;;;8.24;89.04;102317.01;106063;1257;99611;-80
2024/04/11 05:40:49;;;;;;;8.20;3.60;;;;;;;8.31;89.46;102316.46;105987;1255;99786;-80
2024/04/11 05:43:44;;;;;;;7.70;4.00;;;;;;;8.40;89.22;102316.77;106000;1260;102792;-81
2024/04/11 05:46:30;;;;;;;12.20;5.40;;;;;;;8.51;89.01;102320.23;106070;1258;99542;-80
2024/04/11 05:49:17;;;;;;;7.60;4.00;;;;;;;8.63;88.92;102322.42;107487;1255;99242;-81
2024/04/11 05:52:05;;;;;;;10.00;4.10;;;;;;;8.74;89.05;102322.17;106315;1256;99303;-81
2024/04/11 05:54:51;;;;;;;9.60;3.60;;;;;;;8.86;89.09;102327.89;106137;1255;99335;-81
2024/04/11 05:57:37;;;;;;;12.10;4.40;;;;;;;8.97;88.78;102331.99;106440;1260;102721;-81
2024/04/11 06:00:29;;;;;;;7.30;3.60;;;;;;;9.09;88.81;102334.52;106182;1258;100736;-78
2024/04/11 06:03:14;;;;;;;7.30;3.30;;;;;;;9.22;88.47;102337.85;106188;1256;99245;-79
2024/04/11 06:06:00;;;;;;;4.80;2.80;;;;;;;9.34;87.89;102341.55;106172;1256;99347;-81
2024/04/11 06:08:47;;;;;;;12.30;3.30;;;;;;;9.47;86.88;102342.20;106154;1256;99878;-79
2024/04/11 06:11:32;;;;;;;6.90;3.30;;;;;;;9.60;86.14;102345.05;106272;1255;102725;-81
2024/04/11 06:14:18;;;;;;;9.00;3.00;;;;;;;9.73;85.20;102348.03;105788;1260;100135;-80
2024/04/11 06:17:04;;;;;;;7.20;2.60;;;;;;;9.85;83.62;102353.66;105736;1258;99586;-80
2024/04/11 06:19:49;;;;;;;6.90;2.10;;;;;;;9.98;82.97;102354.56;105716;1255;99419;-81
2024/04/11 06:22:35;;;;;;;6.40;2.50;;;;;;;10.11;82.20;102352.71;105808;1259;99309;-80
2024/04/11 06:25:22;;;;;;;6.10;2.50;;;;;;;10.24;81.33;102353.33;105737;1259;102718;-79
2024/04/11 06:28:11;;;;;;;8.40;2.30;;;;;;;10.34;79.59;102354.84;105648;1255;99256;-79
2024/04/11 06:30:56;;;;;;;8.70;2.00;;;;;;;10.43;78.13;102358.47;105948;1258;99381;-79
2024/04/11 06:33:42;;;;;;;7.30;2.10;;;;;;;10.52;77.58;102360.28;105452;1260;99335;-83
2024/04/11 06:36:44;;;;;;;;;;;;;;;;;;;;;
2024/04/11 06:40:12;;;;;;;15.20;4.30;;;;;;;10.75;75.57;102356.95;106067;1256;104215;-79
2024/04/11 06:42:59;;;;;;;10.40;2.30;;;;;;;10.85;74.98;102360.29;105667;1256;99699;-80
2024/04/11 06:45:50;;;;;;;7.20;2.00;;;;;;;10.95;73.92;102363.90;106067;1257;99751;-81
2024/04/11 06:48:38;;;;;;;7.00;2.80;;;;;;;11.03;72.94;102365.08;106002;1255;99421;-81
2024/04/11 06:51:30;;;;;;;5.90;2.40;;;;;;;11.10;72.41;102364.89;106166;1258;99761;-80
2024/04/11 06:54:18;;;;;;;10.20;2.60;;;;;;;11.18;72.40;102362.64;106077;1255;104176;-81
2024/04/11 06:57:03;;;;;;;5.40;2.50;;;;;;;11.30;72.60;102361.16;106017;1254;100318;-79
2024/04/11 06:59:55;;;;;;;6.40;1.80;;;;;;;11.40;71.19;102359.63;106095;1258;99325;-78
2024/04/11 07:02:46;;;;;;;6.10;2.10;;;;;;;11.49;70.95;102357.67;106078;1258;99304;-80
2024/04/11 07:05:32;;;;;;;10.20;2.10;;;;;;;11.58;69.47;102358.69;106152;1256;99141;-82
2024/04/11 07:08:29;;;;;;;6.10;2.00;;;;;;;11.64;68.70;102358.62;106121;1255;104958;-80
2024/04/11 07:11:28;;;;;;;6.10;2.10;;;;;;;11.74;68.32;102360.03;105967;1259;99735;-80
2024/04/11 07:14:23;;;;;;;7.30;1.90;;;;;;;11.84;68.13;102365.61;106175;1257;99276;-82
2024/04/11 07:17:14;;;;;;;5.00;1.70;;;;;;;11.94;67.55;102363.36;106091;1255;99239;-80
2024/04/11 07:19:59;;;;;;;4.00;1.90;;;;;;;12.03;67.76;102358.32;106155;1255;99297;-80
2024/04/11 07:22:47;;;;;;;5.10;1.60;;;;;;;12.13;66.47;102360.20;106138;1255;102631;-81
2024/04/11 07:25:35;;;;;;;6.10;1.70;;;;;;;12.18;65.45;102365.04;106183;1255;99774;-80
2024/04/11 07:28:20;;;;;;;5.50;1.90;;;;;;;12.23;65.39;102363.94;106181;1255;99349;-81
2024/04/11 07:31:06;;;;;;;3.90;1.50;;;;;;;12.30;65.10;102363.06;106124;1255;99320;-80
2024/04/11 07:33:52;;;;;;;9.00;2.20;;;;;;;12.38;64.73;102369.58;106190;1257;99326;-83
2024/04/11 07:36:41;;;;;;;10.50;1.80;;;;;;;12.46;64.84;102366.34;106211;1261;102747;-82
2024/04/11 07:39:26;;;;;;;7.90;1.90;;;;;;;12.55;64.66;102363.98;106293;1261;109906;-79
2024/04/11 07:42:47;;;;;;;5.30;1.90;;;;;;;12.58;63.54;102363.12;106257;1259;99231;-81
2024/04/11 07:47:50;;;;;;;6.20;2.00;;;;;;;12.68;63.55;102353.73;102950;1296;636517;-83
2024/04/11 07:50:37;;;;;;;7.40;2.10;;;;;;;12.70;62.68;102352.04;105332;1266;95856;-81
2024/04/11 07:53:26;;;;;;;4.80;1.90;;;;;;;12.75;62.72;102352.17;105220;1267;95924;-81
2024/04/11 07:56:11;;;;;;;7.10;2.20;;;;;;;12.85;63.38;102352.77;105482;1270;99942;-84
2024/04/11 07:58:57;;;;;;;5.30;1.60;;;;;;;12.96;63.59;102351.23;105505;1271;99308;-83
2024/04/11 08:01:44;;;;;;;7.60;1.30;;;;;;;13.05;63.53;102349.36;105462;1269;318382;-83
2024/04/11 08:04:29;;;;;;;6.10;1.60;;;;;;;13.14;63.67;102348.63;105773;1263;95904;-82
2024/04/11 08:07:15;;;;;;;6.10;1.90;;;;;;;13.23;63.62;102348.77;105527;1269;95913;-83
2024/04/11 08:10:01;;;;;;;6.40;1.60;;;;;;;13.28;62.62;102348.19;105546;1267;98698;-83
2024/04/11 08:12:50;;;;;;;6.20;1.60;;;;;;;13.32;62.00;102347.84;105640;1269;100389;-82
2024/04/11 08:15:36;;;;;;;5.40;2.00;;;;;;;13.37;61.79;102348.55;105563;1266;97737;-80
2024/04/11 08:18:22;;;;;;;4.40;1.80;;;;;;;13.43;62.03;102351.74;105742;1265;96803;-82
2024/04/11 08:21:08;;;;;;;5.40;2.20;;;;;;;13.50;61.53;102354.48;105649;1264;97928;-81
2024/04/11 08:23:54;;;;;;;5.10;1.60;;;;;;;13.54;60.61;102354.01;105688;1266;100006;-81
2024/04/11 08:26:39;;;;;;;6.40;2.00;;;;;;;13.58;60.91;102351.23;105966;1265;108223;-82
2024/04/11 08:29:25;;;;;;;3.60;1.30;;;;;;;13.62;60.27;102353.46;106222;1262;99340;-84
2024/04/11 08:32:13;;;;;;;6.80;1.80;;;;;;;13.68;60.46;102353.62;106117;1257;96617;-83
2024/04/11 08:35:02;;;;;;;7.40;2.10;;;;;;;13.76;60.23;102352.45;106108;1257;97894;-83
2024/04/11 08:37:51;;;;;;;3.60;1.40;;;;;;;13.84;59.92;102357.20;105836;1263;100050;-82
2024/04/11 08:40:41;;;;;;;5.50;1.40;;;;;;;13.90;58.97;102355.67;106012;1258;100520;-84
2024/04/11 08:43:30;;;;;;;7.70;1.70;;;;;;;13.92;58.62;102352.66;106005;1257;97538;-83
2024/04/11 08:46:15;;;;;;;8.10;1.70;;;;;;;13.98;58.80;102355.15;105959;1262;96458;-83
2024/04/11 08:49:03;;;;;;;4.40;1.50;;;;;;;14.03;58.03;102348.63;105798;1257;97139;-83
2024/04/11 08:51:50;;;;;;;6.00;1.80;;;;;;;14.05;57.57;102349.58;105711;1265;101282;-85
2024/04/11 08:54:41;;;;;;;4.60;1.90;;;;;;;14.10;58.78;102348.40;105772;1258;99126;-82
2024/04/11 08:57:27;;;;;;;10.00;2.10;;;;;;;14.20;58.85;102342.33;106280;1259;99233;-84
2024/04/11 09:00:21;;;;;;;6.20;1.70;;;;;;;14.26;58.39;102346.27;106213;1257;96614;-84
2024/04/11 09:03:12;;;;;;;9.60;2.00;;;;;;;14.30;57.16;102346.55;106306;1257;97160;-84
2024/04/11 09:05:58;;;;;;;3.80;1.40;;;;;;;14.31;55.98;102346.98;106187;1257;100040;-83
2024/04/11 09:08:44;;;;;;;6.70;1.60;;;;;;;14.34;55.50;102343.11;106242;1254;100444;-83
2024/04/11 09:11:31;;;;;;;5.40;1.50;;;;;;;14.33;54.90;102342.13;106074;1259;106571;-86
2024/04/11 09:14:16;;;;;;;3.60;1.50;;;;;;;14.28;55.09;102344.44;106238;1257;98018;-84
2024/04/11 09:17:04;;;;;;;6.80;1.80;;;;;;;14.27;55.42;102340.79;106181;1256;96560;-85
2024/04/11 09:20:01;;;;;;;6.40;1.30;;;;;;;14.22;54.98;102335.90;105975;1260;100131;-85
2024/04/11 09:22:50;;;;;;;4.00;1.60;;;;;;;14.21;54.04;102335.56;106226;1252;100001;-83
2024/04/11 09:25:41;;;;;;;5.80;1.60;;;;;;;14.26;54.08;102330.29;106139;1259;97711;-84
2024/04/11 09:30:32;;;;;;;5.90;1.60;;;;;;;14.43;54.94;102330.20;103133;1292;636286;-82
2024/04/11 09:33:21;;;;;;;3.50;1.30;;;;;;;14.50;54.18;102326.72;105395;1264;95904;-84
2024/04/11 09:36:10;;;;;;;3.60;1.60;;;;;;;14.55;54.18;102325.65;105291;1267;96000;-84
2024/04/11 09:39:04;;;;;;;2.30;1.70;;;;;;;14.62;54.38;102322.59;105323;1267;98745;-84
2024/04/11 09:41:56;;;;;;;6.40;1.80;;;;;;;14.71;54.42;102320.92;105427;1270;99260;-83
2024/04/11 09:44:48;;;;;;;4.00;1.50;;;;;;;14.77;53.96;102320.23;105242;1267;177405;-85
2024/04/11 09:47:35;;;;;;;5.50;1.70;;;;;;;14.80;53.90;102323.84;106045;1254;95817;-83
2024/04/11 09:50:24;;;;;;;5.10;1.50;;;;;;;14.85;52.90;102319.40;105947;1264;95814;-84
2024/04/11 09:53:14;;;;;;;3.40;1.60;;;;;;;14.88;52.67;102317.62;105921;1260;98679;-84
2024/04/11 09:56:02;;;;;;;5.60;1.80;;;;;;;14.94;53.54;102316.54;106137;1261;99276;-86
2024/04/11 09:58:48;;;;;;;6.70;1.90;;;;;;;15.01;54.54;102318.16;105892;1260;97739;-84
2024/04/11 10:01:37;;;;;;;8.60;1.60;;;;;;;15.10;53.93;102318.23;105845;1254;97829;-83
2024/04/11 10:04:35;;;;;;;4.80;1.40;;;;;;;15.16;53.80;102313.63;106011;1254;97204;-85
2024/04/11 10:07:21;;;;;;;5.80;1.80;;;;;;;15.22;53.77;102310.70;106161;1257;100889;-85
2024/04/11 10:10:25;;;;;;;5.00;1.40;;;;;;;15.30;53.77;102309.48;106185;1255;99228;-85
2024/04/11 10:13:12;;;;;;;4.90;1.60;;;;;;;15.38;54.08;102312.27;106032;1260;97741;-83
2024/04/11 10:16:29;;;;;;;5.50;1.60;;;;;;;15.48;54.34;102308.67;106153;1257;96671;-83
2024/04/11 10:19:26;;;;;;;4.20;1.40;;;;;;;15.63;54.29;102307.85;105892;1260;96894;-84
2024/04/11 10:22:15;;;;;;;5.90;2.00;;;;;;;15.76;54.16;102307.65;106175;1254;101644;-83
2024/04/11 10:25:06;;;;;;;4.80;1.40;;;;;;;15.83;53.25;102302.59;106153;1254;100918;-85
2024/04/11 10:27:51;;;;;;;5.10;1.60;;;;;;;15.86;53.23;102293.54;106125;1254;98968;-85
2024/04/11 10:30:40;;;;;;;3.90;1.50;;;;;;;15.93;53.67;102296.66;106171;1254;96793;-84
2024/04/11 10:33:29;;;;;;;4.60;1.60;;;;;;;16.01;53.47;102298.73;106426;1258;96592;-84
2024/04/11 10:36:17;;;;;;;7.00;1.80;;;;;;;16.10;53.39;102301.39;106281;1254;101263;-85
2024/04/11 10:39:08;;;;;;;5.20;1.50;;;;;;;16.17;53.04;102302.58;107374;1253;99121;-86
2024/04/11 10:41:56;;;;;;;4.80;1.90;;;;;;;16.20;51.79;102299.82;106081;1254;97720;-85
2024/04/11 10:44:45;;;;;;;5.80;1.70;;;;;;;16.22;51.97;102299.66;105903;1260;96630;-85
2024/04/11 10:47:31;;;;;;;6.30;1.70;;;;;;;16.26;51.04;102297.88;106123;1254;97026;-85
2024/04/11 10:50:17;;;;;;;6.70;1.60;;;;;;;16.27;51.13;102293.55;106068;1254;99968;-85
2024/04/11 10:53:05;;;;;;;4.00;1.60;;;;;;;16.30;50.63;102296.55;106094;1254;99148;-85
2024/04/11 10:55:55;;;;;;;5.00;1.70;;;;;;;16.29;49.90;102293.96;106255;1254;99131;-82
2024/04/11 10:58:44;;;;;;;4.80;1.50;;;;;;;16.29;49.68;102291.96;105983;1260;97349;-83
2024/04/11 11:01:30;;;;;;;3.80;1.60;;;;;;;16.33;50.00;102286.61;106254;1254;96594;-83
2024/04/11 11:04:20;;;;;;;7.00;1.80;;;;;;;16.40;50.33;102286.72;106291;1251;102147;-82
2024/04/11 11:07:09;;;;;;;7.30;2.00;;;;;;;16.46;50.65;102288.78;106152;1251;100840;-84
2024/04/11 11:09:57;;;;;;;5.40;1.80;;;;;;;16.48;49.02;102287.45;106186;1251;99077;-83
2024/04/11 11:12:43;;;;;;;5.80;1.60;;;;;;;16.42;48.61;102282.23;106207;1257;96725;-82
2024/04/11 11:15:31;;;;;;;4.40;1.70;;;;;;;16.39;48.59;102289.27;106212;1257;96660;-83
2024/04/11 11:18:16;;;;;;;8.70;1.40;;;;;;;16.38;49.25;102289.32;106284;1251;99999;-83
2024/04/11 11:21:07;;;;;;;4.60;1.60;;;;;;;16.38;48.64;102283.13;106671;1251;100367;-82
2024/04/11 11:24:06;;;;;;;4.50;1.60;;;;;;;16.40;48.57;102279.79;107332;1251;97459;-83
2024/04/11 11:26:56;;;;;;;3.70;1.80;;;;;;;16.48;49.20;102276.72;107154;1251;96348;-83
2024/04/11 11:29:42;;;;;;;6.90;2.00;;;;;;;16.56;49.64;102271.88;107169;1254;96639;-84
2024/04/11 11:32:35;;;;;;;6.00;1.80;;;;;;;16.64;50.10;102269.28;107453;1251;101219;-84
2024/04/11 11:35:24;;;;;;;6.10;1.60;;;;;;;16.74;50.33;102267.68;106986;1254;99116;-84
2024/04/11 11:38:11;;;;;;;4.50;1.40;;;;;;;16.77;50.05;102269.91;106868;1251;97703;-83
2024/04/11 11:41:00;;;;;;;8.20;2.70;;;;;;;16.70;49.38;102270.70;106286;1253;97107;-84
2024/04/11 11:43:45;;;;;;;5.80;1.60;;;;;;;16.64;49.13;102267.84;106292;1256;100585;-83
2024/04/11 11:46:37;;;;;;;3.90;2.00;;;;;;;16.59;49.39;102270.71;106620;1254;101103;-85
2024/04/11 11:49:24;;;;;;;6.70;1.90;;;;;;;16.57;49.07;102266.39;106289;1251;100338;-84
2024/04/11 11:52:14;;;;;;;5.70;2.00;;;;;;;16.62;49.67;102261.06;106519;1251;97725;-85
2024/04/11 11:54:59;;;;;;;5.30;1.80;;;;;;;16.68;48.60;102261.23;106463;1257;97461;-82
2024/04/11 11:57:54;;;;;;;6.80;1.70;;;;;;;16.67;48.38;102261.04;106257;1257;96642;-84
2024/04/11 12:00:49;;;;;;;5.50;1.70;;;;;;;16.70;48.63;102256.88;106459;1251;101224;-82
2024/04/11 12:03:37;;;;;;;4.70;1.40;;;;;;;16.75;48.20;102252.26;106250;1251;100446;-83
2024/04/11 12:06:22;;;;;;;4.40;1.60;;;;;;;16.84;48.44;102251.47;106263;1251;97717;-82
2024/04/11 12:09:11;;;;;;;4.00;1.50;;;;;;;16.90;48.29;102248.21;106328;1251;96648;-84
2024/04/11 12:12:20;;;;;;;5.80;2.10;;;;;;;16.96;48.36;102239.75;106410;1251;96928;-85
2024/04/11 12:15:06;;;;;;;5.70;1.50;;;;;;;17.02;48.42;102236.29;106324;1254;100033;-82
2024/04/11 12:17:52;;;;;;;5.20;1.60;;;;;;;17.12;49.24;102237.08;106433;1257;100852;-84
2024/04/11 12:20:39;;;;;;;3.80;1.70;;;;;;;17.16;47.99;102226.41;106573;1251;99274;-83
2024/04/11 12:23:30;;;;;;;5.50;1.80;;;;;;;17.16;47.80;102219.96;106031;1257;96610;-82
2024/04/11 12:26:15;;;;;;;5.00;2.00;;;;;;;17.20;47.50;102213.98;106355;1251;96661;-83
2024/04/11 12:29:03;;;;;;;5.00;1.60;;;;;;;17.20;46.80;102212.76;106228;1257;100471;-84
2024/04/11 12:31:50;;;;;;;8.50;1.90;;;;;;;17.22;47.53;102208.52;106351;1254;99129;-83
2024/04/11 12:34:37;;;;;;;4.30;1.90;;;;;;;17.32;48.15;102206.81;106380;1251;98971;-82
2024/04/11 12:37:25;;;;;;;5.60;1.90;;;;;;;17.39;47.96;102200.72;106267;1270;96590;-84
2024/04/11 12:40:13;;;;;;;7.90;2.30;;;;;;;17.44;47.83;102192.90;106284;1251;96649;-84
2024/04/11 12:43:01;;;;;;;4.70;1.70;;;;;;;17.51;47.44;102193.98;106191;1251;100016;-84
2024/04/11 12:45:54;;;;;;;5.50;1.90;;;;;;;17.54;47.20;102193.45;106082;1251;99170;-85
2024/04/11 12:48:40;;;;;;;4.40;1.80;;;;;;;17.54;46.46;102190.86;106210;1251;97786;-85
2024/04/11 12:51:30;;;;;;;6.60;2.20;;;;;;;17.52;46.32;102188.38;106234;1251;96610;-83
2024/04/11 12:54:16;;;;;;;3.10;1.70;;;;;;;17.55;46.27;102186.89;106536;1251;96709;-85
2024/04/11 12:57:04;;;;;;;3.20;1.60;;;;;;;17.64;46.65;102185.50;106822;1251;100048;-86